Terminal Aerodrome Forecast
Issued by NWS Charleston, WV

Current Version | Previous Version | Text Only | Print | Product List | Glossary On
Versions: 1 2 3 4 5 6 7 8 9 10 11 12 13 14 15 16 17 18 19 20 21 22 23 24 25 26 27 28 29 30 31 32 33 34 35 36
769
FTUS41 KRLX 211120
TAFHTS
TAF
KHTS 211120Z 2112/2212 19006KT P6SM SCT070 WS020/20040KT
     FM211700 23008G18KT 6SM SHRA VCTS BKN040CB
     FM212100 34006KT P6SM SHRA BKN015
     FM220200 02005KT 5SM SHRA BR OVC008
     FM220500 04005KT 2SM SHRA BR OVC008=

USA.gov is the U.S. government's official web portal to all federal, state and local government web resources and services.